Epic St Croix — 9HA4038 — position and weather

sailwx.info

Track history (hours):
 
Tides and Currents Weather Stations Pressure Air Temp Water Temp Dewpoint Dewpoint Depression Visibility Wind Speed Wind Dir Waves Ship Positions

Epic St Croix

Last reported at 2017-Nov-17 11:10 UTC. Time now 2017-Nov-18 16:05 UTC.
Position N 37°32' W 001°04'.

Length 100 m; draft 6.4 m.

Type: Tanker. MMSI: 256925000.

Date/timePositionNaut miles runAvg speedWind from/ knotsBaromVisibWave heightAir tempDewpointWater temp
2017-Nov-17 11:10N 37°32' W 001°04'  
2017-Nov-14 09:02N 35°58' W 005°14'014.8
2017-Nov-14 09:00N 35°58' W 005°15'814.7
2017-Nov-14 08:28N 35°58' W 005°25'  
2017-Nov-08 18:39N 39°17' W 009°56'1 7.6
2017-Nov-08 18:29N 39°16' W 009°56'4 7.5
2017-Nov-08 18:00N 39°13' W 009°57'4 7.6
2017-Nov-08 17:30N 39°09' W 009°57'4 7.3
2017-Nov-08 17:00N 39°05' W 009°56'4 7.5
2017-Nov-08 16:30N 39°02' W 009°56'4 7.6
2017-Nov-08 16:00N 38°58' W 009°56'4 7.9
2017-Nov-08 15:30N 38°54' W 009°56'3 6.9
2017-Nov-08 15:00N 38°50' W 009°56'4 8.2
2017-Nov-08 14:30N 38°46' W 009°56'4 7.9
2017-Nov-08 14:00N 38°42' W 009°57'4 7.8
2017-Nov-08 13:30N 38°38' W 009°57'4 7.7
2017-Nov-08 13:00N 38°35' W 009°56'4 8.4
2017-Nov-08 12:30N 38°30' W 009°56'4 8.0
2017-Nov-08 12:00N 38°26' W 009°56'4 7.5
2017-Nov-08 11:30N 38°23' W 009°56'4 7.8
2017-Nov-08 11:00N 38°19' W 009°56'4 7.9
2017-Nov-08 10:30N 38°15' W 009°56'4 8.0
2017-Nov-08 10:00N 38°11' W 009°56'  
Track history (hours):
 
Tides and Currents Weather Stations Pressure Air Temp Water Temp Dewpoint Dewpoint Depression Visibility Wind Speed Wind Dir Waves Ship Positions

Epic St Croix

Last reported at 2017-Nov-17 11:10 UTC. Time now 2017-Nov-18 16:05 UTC.
Position N 37°32' W 001°04'.

Length 100 m; draft 6.4 m.

Type: Tanker. MMSI: 256925000.

Date/timePositionNaut miles runAvg speedWind from/ knotsBaromVisibWave heightAir tempDewpointWater temp
2017-Nov-17 11:10N 37°32' W 001°04'  
2017-Nov-14 09:02N 35°58' W 005°14'014.8
2017-Nov-14 09:00N 35°58' W 005°15'814.7
2017-Nov-14 08:28N 35°58' W 005°25'  
2017-Nov-08 18:39N 39°17' W 009°56'1 7.6
2017-Nov-08 18:29N 39°16' W 009°56'4 7.5
2017-Nov-08 18:00N 39°13' W 009°57'4 7.6
2017-Nov-08 17:30N 39°09' W 009°57'4 7.3
2017-Nov-08 17:00N 39°05' W 009°56'4 7.5
2017-Nov-08 16:30N 39°02' W 009°56'4 7.6
2017-Nov-08 16:00N 38°58' W 009°56'4 7.9
2017-Nov-08 15:30N 38°54' W 009°56'3 6.9
2017-Nov-08 15:00N 38°50' W 009°56'4 8.2
2017-Nov-08 14:30N 38°46' W 009°56'4 7.9
2017-Nov-08 14:00N 38°42' W 009°57'4 7.8
2017-Nov-08 13:30N 38°38' W 009°57'4 7.7
2017-Nov-08 13:00N 38°35' W 009°56'4 8.4
2017-Nov-08 12:30N 38°30' W 009°56'4 8.0
2017-Nov-08 12:00N 38°26' W 009°56'4 7.5
2017-Nov-08 11:30N 38°23' W 009°56'4 7.8
2017-Nov-08 11:00N 38°19' W 009°56'4 7.9
2017-Nov-08 10:30N 38°15' W 009°56'4 8.0
2017-Nov-08 10:00N 38°11' W 009°56'  

Dump ship's entire track history